sensor_id;sensor_type;location;lat;lon;timestamp;P1;durP1;ratioP1;P2;durP2;ratioP2
74624;SDS011;63131;52.298;8.056;2023-06-14T00:00:32;5.13;;;1.90;;
74624;SDS011;63131;52.298;8.056;2023-06-14T00:02:59;5.00;;;1.70;;
74624;SDS011;63131;52.298;8.056;2023-06-14T00:05:24;6.65;;;2.00;;
74624;SDS011;63131;52.298;8.056;2023-06-14T00:07:49;5.57;;;1.73;;
74624;SDS011;63131;52.298;8.056;2023-06-14T00:10:18;6.65;;;2.00;;
74624;SDS011;63131;52.298;8.056;2023-06-14T00:12:43;5.30;;;1.90;;
74624;SDS011;63131;52.298;8.056;2023-06-14T00:15:09;4.57;;;1.77;;
74624;SDS011;63131;52.298;8.056;2023-06-14T00:17:35;5.18;;;1.70;;
74624;SDS011;63131;52.298;8.056;2023-06-14T00:20:02;8.85;;;1.83;;
74624;SDS011;63131;52.298;8.056;2023-06-14T00:22:28;8.48;;;2.10;;
74624;SDS011;63131;52.298;8.056;2023-06-14T00:24:53;7.97;;;2.05;;
74624;SDS011;63131;52.298;8.056;2023-06-14T00:27:19;5.55;;;2.05;;
74624;SDS011;63131;52.298;8.056;2023-06-14T00:29:44;7.80;;;1.98;;
74624;SDS011;63131;52.298;8.056;2023-06-14T00:32:09;6.70;;;1.60;;
74624;SDS011;63131;52.298;8.056;2023-06-14T00:34:35;6.80;;;1.97;;
74624;SDS011;63131;52.298;8.056;2023-06-14T00:37:00;5.05;;;1.52;;
74624;SDS011;63131;52.298;8.056;2023-06-14T00:39:26;4.85;;;1.80;;
74624;SDS011;63131;52.298;8.056;2023-06-14T00:41:51;4.87;;;2.00;;
74624;SDS011;63131;52.298;8.056;2023-06-14T00:44:16;4.07;;;1.40;;
74624;SDS011;63131;52.298;8.056;2023-06-14T00:46:42;5.82;;;2.05;;
74624;SDS011;63131;52.298;8.056;2023-06-14T00:49:07;5.75;;;1.80;;
74624;SDS011;63131;52.298;8.056;2023-06-14T00:51:33;5.20;;;1.70;;
74624;SDS011;63131;52.298;8.056;2023-06-14T00:53:58;5.20;;;1.70;;
74624;SDS011;63131;52.298;8.056;2023-06-14T00:56:24;6.55;;;1.70;;
74624;SDS011;63131;52.298;8.056;2023-06-14T00:58:50;5.57;;;1.75;;
74624;SDS011;63131;52.298;8.056;2023-06-14T01:01:16;4.85;;;1.65;;
74624;SDS011;63131;52.298;8.056;2023-06-14T01:03:41;6.33;;;1.70;;
74624;SDS011;63131;52.298;8.056;2023-06-14T01:06:18;5.10;;;1.90;;
74624;SDS011;63131;52.298;8.056;2023-06-14T01:08:56;6.03;;;1.92;;
74624;SDS011;63131;52.298;8.056;2023-06-14T01:11:24;6.38;;;1.70;;
74624;SDS011;63131;52.298;8.056;2023-06-14T01:13:52;7.22;;;1.67;;
74624;SDS011;63131;52.298;8.056;2023-06-14T01:16:18;5.47;;;1.98;;
74624;SDS011;63131;52.298;8.056;2023-06-14T01:18:44;5.25;;;1.80;;
74624;SDS011;63131;52.298;8.056;2023-06-14T01:21:24;5.78;;;1.80;;
74624;SDS011;63131;52.298;8.056;2023-06-14T01:23:49;5.18;;;1.75;;
74624;SDS011;63131;52.298;8.056;2023-06-14T01:26:18;6.43;;;1.88;;
74624;SDS011;63131;52.298;8.056;2023-06-14T01:28:44;4.97;;;1.60;;
74624;SDS011;63131;52.298;8.056;2023-06-14T01:31:16;5.72;;;1.92;;
74624;SDS011;63131;52.298;8.056;2023-06-14T01:33:42;7.45;;;1.85;;
74624;SDS011;63131;52.298;8.056;2023-06-14T01:36:08;6.68;;;1.90;;
74624;SDS011;63131;52.298;8.056;2023-06-14T01:38:34;5.55;;;2.00;;
74624;SDS011;63131;52.298;8.056;2023-06-14T01:40:59;6.00;;;1.77;;
74624;SDS011;63131;52.298;8.056;2023-06-14T01:43:26;5.43;;;1.75;;
74624;SDS011;63131;52.298;8.056;2023-06-14T01:45:53;4.57;;;1.65;;
74624;SDS011;63131;52.298;8.056;2023-06-14T01:48:19;5.13;;;1.73;;
74624;SDS011;63131;52.298;8.056;2023-06-14T01:50:45;6.47;;;2.42;;
74624;SDS011;63131;52.298;8.056;2023-06-14T01:53:10;7.23;;;1.73;;
74624;SDS011;63131;52.298;8.056;2023-06-14T01:55:35;4.75;;;1.75;;
74624;SDS011;63131;52.298;8.056;2023-06-14T01:58:02;7.00;;;1.80;;
74624;SDS011;63131;52.298;8.056;2023-06-14T02:00:28;4.68;;;1.55;;
74624;SDS011;63131;52.298;8.056;2023-06-14T02:02:53;6.33;;;1.80;;
74624;SDS011;63131;52.298;8.056;2023-06-14T02:05:18;6.13;;;1.83;;
74624;SDS011;63131;52.298;8.056;2023-06-14T02:07:44;5.53;;;1.90;;
74624;SDS011;63131;52.298;8.056;2023-06-14T02:10:10;4.88;;;1.85;;
74624;SDS011;63131;52.298;8.056;2023-06-14T02:12:35;5.67;;;1.90;;
74624;SDS011;63131;52.298;8.056;2023-06-14T02:15:01;5.67;;;1.63;;
74624;SDS011;63131;52.298;8.056;2023-06-14T02:17:26;9.77;;;2.10;;
74624;SDS011;63131;52.298;8.056;2023-06-14T02:19:51;5.80;;;1.83;;
74624;SDS011;63131;52.298;8.056;2023-06-14T02:22:17;7.82;;;1.95;;
74624;SDS011;63131;52.298;8.056;2023-06-14T02:24:42;5.95;;;1.98;;
74624;SDS011;63131;52.298;8.056;2023-06-14T02:27:07;6.25;;;1.98;;
74624;SDS011;63131;52.298;8.056;2023-06-14T02:29:35;6.45;;;2.10;;
74624;SDS011;63131;52.298;8.056;2023-06-14T02:32:00;6.22;;;1.92;;
74624;SDS011;63131;52.298;8.056;2023-06-14T02:34:26;8.00;;;2.30;;
74624;SDS011;63131;52.298;8.056;2023-06-14T02:36:51;6.90;;;2.47;;
74624;SDS011;63131;52.298;8.056;2023-06-14T02:39:17;5.43;;;1.80;;
74624;SDS011;63131;52.298;8.056;2023-06-14T02:41:45;5.93;;;2.05;;
74624;SDS011;63131;52.298;8.056;2023-06-14T02:44:10;6.93;;;2.27;;
74624;SDS011;63131;52.298;8.056;2023-06-14T02:46:37;5.88;;;1.92;;
74624;SDS011;63131;52.298;8.056;2023-06-14T02:49:02;4.70;;;1.60;;
74624;SDS011;63131;52.298;8.056;2023-06-14T02:51:28;5.53;;;1.77;;
74624;SDS011;63131;52.298;8.056;2023-06-14T02:53:53;6.78;;;2.00;;
74624;SDS011;63131;52.298;8.056;2023-06-14T02:56:19;7.27;;;2.07;;
74624;SDS011;63131;52.298;8.056;2023-06-14T02:58:44;7.20;;;2.33;;
74624;SDS011;63131;52.298;8.056;2023-06-14T03:01:09;8.98;;;2.58;;
74624;SDS011;63131;52.298;8.056;2023-06-14T03:03:37;5.40;;;2.13;;
74624;SDS011;63131;52.298;8.056;2023-06-14T03:06:03;5.15;;;2.20;;
74624;SDS011;63131;52.298;8.056;2023-06-14T03:08:30;6.68;;;2.20;;
74624;SDS011;63131;52.298;8.056;2023-06-14T03:10:56;7.60;;;2.22;;
74624;SDS011;63131;52.298;8.056;2023-06-14T03:13:22;6.78;;;2.13;;
74624;SDS011;63131;52.298;8.056;2023-06-14T03:15:48;7.30;;;2.35;;
74624;SDS011;63131;52.298;8.056;2023-06-14T03:18:15;6.30;;;2.30;;
74624;SDS011;63131;52.298;8.056;2023-06-14T03:20:40;7.10;;;2.50;;
74624;SDS011;63131;52.298;8.056;2023-06-14T03:23:07;6.05;;;2.00;;
74624;SDS011;63131;52.298;8.056;2023-06-14T03:25:32;7.13;;;2.50;;
74624;SDS011;63131;52.298;8.056;2023-06-14T03:28:00;8.10;;;2.17;;
74624;SDS011;63131;52.298;8.056;2023-06-14T03:30:25;6.40;;;2.15;;
74624;SDS011;63131;52.298;8.056;2023-06-14T03:32:51;5.50;;;2.10;;
74624;SDS011;63131;52.298;8.056;2023-06-14T03:35:18;6.88;;;2.20;;
74624;SDS011;63131;52.298;8.056;2023-06-14T03:37:44;6.72;;;2.53;;
74624;SDS011;63131;52.298;8.056;2023-06-14T03:40:09;6.25;;;2.10;;
74624;SDS011;63131;52.298;8.056;2023-06-14T03:42:35;6.30;;;2.50;;
74624;SDS011;63131;52.298;8.056;2023-06-14T03:47:25;6.80;;;2.63;;
74624;SDS011;63131;52.298;8.056;2023-06-14T03:52:15;6.38;;;2.25;;
74624;SDS011;63131;52.298;8.056;2023-06-14T03:54:42;7.65;;;2.63;;
74624;SDS011;63131;52.298;8.056;2023-06-14T03:57:08;6.97;;;2.22;;
74624;SDS011;63131;52.298;8.056;2023-06-14T03:59:34;7.30;;;2.30;;
74624;SDS011;63131;52.298;8.056;2023-06-14T04:02:00;6.07;;;2.15;;
74624;SDS011;63131;52.298;8.056;2023-06-14T04:04:25;6.77;;;2.20;;
74624;SDS011;63131;52.298;8.056;2023-06-14T04:06:53;7.00;;;2.40;;
74624;SDS011;63131;52.298;8.056;2023-06-14T04:09:19;6.38;;;2.25;;
74624;SDS011;63131;52.298;8.056;2023-06-14T04:14:09;5.67;;;2.03;;
74624;SDS011;63131;52.298;8.056;2023-06-14T04:19:00;7.27;;;2.27;;
74624;SDS011;63131;52.298;8.056;2023-06-14T04:23:52;5.93;;;2.22;;
74624;SDS011;63131;52.298;8.056;2023-06-14T04:26:18;7.87;;;2.37;;
74624;SDS011;63131;52.298;8.056;2023-06-14T04:28:44;7.53;;;2.38;;
74624;SDS011;63131;52.298;8.056;2023-06-14T04:31:10;6.32;;;2.22;;
74624;SDS011;63131;52.298;8.056;2023-06-14T04:33:36;6.45;;;2.55;;
74624;SDS011;63131;52.298;8.056;2023-06-14T04:40:59;8.98;;;2.50;;
74624;SDS011;63131;52.298;8.056;2023-06-14T04:43:26;6.70;;;2.40;;
74624;SDS011;63131;52.298;8.056;2023-06-14T04:45:52;6.75;;;2.58;;
74624;SDS011;63131;52.298;8.056;2023-06-14T04:48:19;6.72;;;2.63;;
74624;SDS011;63131;52.298;8.056;2023-06-14T04:50:45;7.20;;;2.35;;
74624;SDS011;63131;52.298;8.056;2023-06-14T04:53:10;6.23;;;2.20;;
74624;SDS011;63131;52.298;8.056;2023-06-14T04:58:01;7.97;;;2.72;;
74624;SDS011;63131;52.298;8.056;2023-06-14T05:00:27;7.80;;;2.80;;
74624;SDS011;63131;52.298;8.056;2023-06-14T05:05:18;6.38;;;2.20;;
74624;SDS011;63131;52.298;8.056;2023-06-14T05:07:44;7.28;;;2.47;;
74624;SDS011;63131;52.298;8.056;2023-06-14T05:10:10;7.25;;;2.47;;
74624;SDS011;63131;52.298;8.056;2023-06-14T05:12:35;7.28;;;2.22;;
74624;SDS011;63131;52.298;8.056;2023-06-14T05:15:01;6.65;;;2.70;;
74624;SDS011;63131;52.298;8.056;2023-06-14T05:17:26;7.53;;;2.87;;
74624;SDS011;63131;52.298;8.056;2023-06-14T05:19:52;6.22;;;2.22;;
74624;SDS011;63131;52.298;8.056;2023-06-14T05:22:18;7.10;;;2.50;;
74624;SDS011;63131;52.298;8.056;2023-06-14T05:24:43;7.10;;;2.43;;
74624;SDS011;63131;52.298;8.056;2023-06-14T05:27:08;9.50;;;2.67;;
74624;SDS011;63131;52.298;8.056;2023-06-14T05:29:33;8.77;;;2.67;;
74624;SDS011;63131;52.298;8.056;2023-06-14T05:31:58;8.27;;;2.50;;
74624;SDS011;63131;52.298;8.056;2023-06-14T05:34:24;5.97;;;2.10;;
74624;SDS011;63131;52.298;8.056;2023-06-14T05:36:49;7.17;;;2.67;;
74624;SDS011;63131;52.298;8.056;2023-06-14T05:41:39;6.93;;;2.33;;
74624;SDS011;63131;52.298;8.056;2023-06-14T05:44:04;6.87;;;2.27;;
74624;SDS011;63131;52.298;8.056;2023-06-14T05:46:30;7.63;;;2.50;;
74624;SDS011;63131;52.298;8.056;2023-06-14T05:48:55;8.73;;;2.80;;
74624;SDS011;63131;52.298;8.056;2023-06-14T05:51:20;6.88;;;2.42;;
74624;SDS011;63131;52.298;8.056;2023-06-14T05:53:48;6.33;;;2.30;;
74624;SDS011;63131;52.298;8.056;2023-06-14T05:56:14;6.28;;;2.30;;
74624;SDS011;63131;52.298;8.056;2023-06-14T05:58:39;7.97;;;2.42;;
74624;SDS011;63131;52.298;8.056;2023-06-14T06:01:04;6.63;;;2.95;;
74624;SDS011;63131;52.298;8.056;2023-06-14T06:03:30;8.20;;;2.55;;
74624;SDS011;63131;52.298;8.056;2023-06-14T06:05:55;8.43;;;2.20;;
74624;SDS011;63131;52.298;8.056;2023-06-14T06:08:20;7.03;;;2.53;;
74624;SDS011;63131;52.298;8.056;2023-06-14T06:10:45;6.97;;;2.63;;
74624;SDS011;63131;52.298;8.056;2023-06-14T06:13:11;7.57;;;2.70;;
74624;SDS011;63131;52.298;8.056;2023-06-14T06:15:36;7.23;;;2.50;;
74624;SDS011;63131;52.298;8.056;2023-06-14T06:18:01;6.40;;;2.53;;
74624;SDS011;63131;52.298;8.056;2023-06-14T06:20:26;6.23;;;2.43;;
74624;SDS011;63131;52.298;8.056;2023-06-14T06:22:53;7.22;;;2.47;;
74624;SDS011;63131;52.298;8.056;2023-06-14T06:25:18;7.13;;;2.20;;
74624;SDS011;63131;52.298;8.056;2023-06-14T06:27:44;6.40;;;2.20;;
74624;SDS011;63131;52.298;8.056;2023-06-14T06:30:09;6.57;;;2.13;;
74624;SDS011;63131;52.298;8.056;2023-06-14T06:32:34;6.13;;;2.40;;
74624;SDS011;63131;52.298;8.056;2023-06-14T06:35:00;7.00;;;2.10;;
74624;SDS011;63131;52.298;8.056;2023-06-14T06:37:25;5.60;;;2.03;;
74624;SDS011;63131;52.298;8.056;2023-06-14T06:39:50;6.03;;;2.10;;
74624;SDS011;63131;52.298;8.056;2023-06-14T06:42:15;6.67;;;2.17;;
74624;SDS011;63131;52.298;8.056;2023-06-14T06:44:40;5.40;;;1.90;;
74624;SDS011;63131;52.298;8.056;2023-06-14T06:47:06;8.10;;;2.43;;
74624;SDS011;63131;52.298;8.056;2023-06-14T06:49:31;5.93;;;1.97;;
74624;SDS011;63131;52.298;8.056;2023-06-14T06:52:03;5.93;;;2.07;;
74624;SDS011;63131;52.298;8.056;2023-06-14T06:54:28;6.50;;;2.53;;
74624;SDS011;63131;52.298;8.056;2023-06-14T06:56:54;5.97;;;1.92;;
74624;SDS011;63131;52.298;8.056;2023-06-14T06:59:19;9.38;;;2.55;;
74624;SDS011;63131;52.298;8.056;2023-06-14T07:01:44;8.10;;;1.90;;
74624;SDS011;63131;52.298;8.056;2023-06-14T07:04:10;5.57;;;1.85;;
74624;SDS011;63131;52.298;8.056;2023-06-14T07:06:35;5.90;;;1.77;;
74624;SDS011;63131;52.298;8.056;2023-06-14T07:09:00;5.65;;;1.67;;
74624;SDS011;63131;52.298;8.056;2023-06-14T07:11:26;5.00;;;1.98;;
74624;SDS011;63131;52.298;8.056;2023-06-14T07:13:51;5.45;;;2.00;;
74624;SDS011;63131;52.298;8.056;2023-06-14T07:16:17;7.57;;;1.95;;
74624;SDS011;63131;52.298;8.056;2023-06-14T07:18:42;3.93;;;1.40;;
74624;SDS011;63131;52.298;8.056;2023-06-14T07:21:07;4.53;;;1.73;;
74624;SDS011;63131;52.298;8.056;2023-06-14T07:23:33;6.55;;;1.88;;
74624;SDS011;63131;52.298;8.056;2023-06-14T07:25:58;4.43;;;1.70;;
74624;SDS011;63131;52.298;8.056;2023-06-14T07:28:23;6.00;;;1.50;;
74624;SDS011;63131;52.298;8.056;2023-06-14T07:30:48;6.10;;;1.90;;
74624;SDS011;63131;52.298;8.056;2023-06-14T07:33:13;5.63;;;1.63;;
74624;SDS011;63131;52.298;8.056;2023-06-14T07:35:39;5.45;;;1.80;;
74624;SDS011;63131;52.298;8.056;2023-06-14T07:38:05;7.28;;;1.95;;
74624;SDS011;63131;52.298;8.056;2023-06-14T07:40:30;6.20;;;1.73;;
74624;SDS011;63131;52.298;8.056;2023-06-14T07:42:55;4.27;;;1.50;;
74624;SDS011;63131;52.298;8.056;2023-06-14T07:45:20;5.60;;;1.47;;
74624;SDS011;63131;52.298;8.056;2023-06-14T07:47:46;5.57;;;1.60;;
74624;SDS011;63131;52.298;8.056;2023-06-14T07:50:11;4.55;;;1.50;;
74624;SDS011;63131;52.298;8.056;2023-06-14T07:52:37;5.95;;;1.67;;
74624;SDS011;63131;52.298;8.056;2023-06-14T07:55:03;6.07;;;1.80;;
74624;SDS011;63131;52.298;8.056;2023-06-14T07:57:28;5.88;;;1.80;;
74624;SDS011;63131;52.298;8.056;2023-06-14T07:59:54;3.85;;;1.55;;
74624;SDS011;63131;52.298;8.056;2023-06-14T08:02:19;8.00;;;1.80;;
74624;SDS011;63131;52.298;8.056;2023-06-14T08:04:44;6.50;;;1.55;;
74624;SDS011;63131;52.298;8.056;2023-06-14T08:07:10;3.50;;;1.23;;
74624;SDS011;63131;52.298;8.056;2023-06-14T08:09:35;3.63;;;1.38;;
74624;SDS011;63131;52.298;8.056;2023-06-14T08:12:03;5.40;;;1.70;;
74624;SDS011;63131;52.298;8.056;2023-06-14T08:14:28;5.75;;;1.58;;
74624;SDS011;63131;52.298;8.056;2023-06-14T08:16:54;3.58;;;1.15;;
74624;SDS011;63131;52.298;8.056;2023-06-14T08:19:20;3.90;;;1.35;;
74624;SDS011;63131;52.298;8.056;2023-06-14T08:21:45;3.70;;;1.30;;
74624;SDS011;63131;52.298;8.056;2023-06-14T08:24:11;5.38;;;1.40;;
74624;SDS011;63131;52.298;8.056;2023-06-14T08:26:37;4.85;;;1.42;;
74624;SDS011;63131;52.298;8.056;2023-06-14T08:29:03;5.13;;;1.27;;
74624;SDS011;63131;52.298;8.056;2023-06-14T08:31:28;2.92;;;1.10;;
74624;SDS011;63131;52.298;8.056;2023-06-14T08:33:53;3.70;;;1.20;;
74624;SDS011;63131;52.298;8.056;2023-06-14T08:36:19;3.50;;;1.30;;
74624;SDS011;63131;52.298;8.056;2023-06-14T08:38:44;4.47;;;1.20;;
74624;SDS011;63131;52.298;8.056;2023-06-14T08:41:09;4.07;;;1.37;;
74624;SDS011;63131;52.298;8.056;2023-06-14T08:43:36;5.13;;;1.48;;
74624;SDS011;63131;52.298;8.056;2023-06-14T08:46:02;4.57;;;1.52;;
74624;SDS011;63131;52.298;8.056;2023-06-14T08:48:28;4.00;;;1.30;;
74624;SDS011;63131;52.298;8.056;2023-06-14T08:50:56;3.35;;;1.33;;
74624;SDS011;63131;52.298;8.056;2023-06-14T08:53:27;5.45;;;1.50;;
74624;SDS011;63131;52.298;8.056;2023-06-14T08:55:53;5.47;;;1.60;;
74624;SDS011;63131;52.298;8.056;2023-06-14T08:58:20;5.90;;;1.30;;
74624;SDS011;63131;52.298;8.056;2023-06-14T09:00:45;4.17;;;1.23;;
74624;SDS011;63131;52.298;8.056;2023-06-14T09:03:11;4.28;;;1.63;;
74624;SDS011;63131;52.298;8.056;2023-06-14T09:05:38;4.20;;;1.48;;
74624;SDS011;63131;52.298;8.056;2023-06-14T09:08:03;6.07;;;1.60;;
74624;SDS011;63131;52.298;8.056;2023-06-14T09:10:30;3.97;;;1.38;;
74624;SDS011;63131;52.298;8.056;2023-06-14T09:12:58;5.28;;;1.50;;
74624;SDS011;63131;52.298;8.056;2023-06-14T09:15:25;4.07;;;1.40;;
74624;SDS011;63131;52.298;8.056;2023-06-14T09:17:50;4.90;;;1.50;;
74624;SDS011;63131;52.298;8.056;2023-06-14T09:20:16;3.33;;;1.30;;
74624;SDS011;63131;52.298;8.056;2023-06-14T09:22:44;3.78;;;1.20;;
74624;SDS011;63131;52.298;8.056;2023-06-14T09:25:10;3.47;;;1.25;;
74624;SDS011;63131;52.298;8.056;2023-06-14T09:27:37;4.10;;;1.35;;
74624;SDS011;63131;52.298;8.056;2023-06-14T09:30:04;4.22;;;1.35;;
74624;SDS011;63131;52.298;8.056;2023-06-14T09:32:30;4.25;;;1.30;;
74624;SDS011;63131;52.298;8.056;2023-06-14T09:34:55;5.38;;;1.30;;
74624;SDS011;63131;52.298;8.056;2023-06-14T09:37:31;4.72;;;1.30;;
74624;SDS011;63131;52.298;8.056;2023-06-14T09:39:56;3.72;;;1.33;;
74624;SDS011;63131;52.298;8.056;2023-06-14T09:42:22;5.75;;;1.63;;
74624;SDS011;63131;52.298;8.056;2023-06-14T09:44:50;3.78;;;1.30;;
74624;SDS011;63131;52.298;8.056;2023-06-14T09:47:16;3.95;;;1.30;;
74624;SDS011;63131;52.298;8.056;2023-06-14T09:49:41;3.58;;;1.50;;
74624;SDS011;63131;52.298;8.056;2023-06-14T09:52:07;3.95;;;1.20;;
74624;SDS011;63131;52.298;8.056;2023-06-14T09:54:35;3.83;;;1.40;;
74624;SDS011;63131;52.298;8.056;2023-06-14T09:57:02;5.57;;;1.85;;
74624;SDS011;63131;52.298;8.056;2023-06-14T09:59:27;3.65;;;1.27;;
74624;SDS011;63131;52.298;8.056;2023-06-14T10:01:57;4.93;;;1.27;;
74624;SDS011;63131;52.298;8.056;2023-06-14T10:04:23;4.72;;;1.27;;
74624;SDS011;63131;52.298;8.056;2023-06-14T10:06:49;4.60;;;1.40;;
74624;SDS011;63131;52.298;8.056;2023-06-14T10:09:15;4.20;;;1.50;;
74624;SDS011;63131;52.298;8.056;2023-06-14T10:11:41;5.47;;;1.45;;
74624;SDS011;63131;52.298;8.056;2023-06-14T10:14:09;5.22;;;1.50;;
74624;SDS011;63131;52.298;8.056;2023-06-14T10:16:36;4.75;;;1.50;;
74624;SDS011;63131;52.298;8.056;2023-06-14T10:21:33;4.30;;;1.43;;
74624;SDS011;63131;52.298;8.056;2023-06-14T10:24:03;3.85;;;1.38;;
74624;SDS011;63131;52.298;8.056;2023-06-14T10:26:29;4.32;;;1.42;;
74624;SDS011;63131;52.298;8.056;2023-06-14T10:28:59;5.90;;;1.30;;
74624;SDS011;63131;52.298;8.056;2023-06-14T10:31:41;4.95;;;1.52;;
74624;SDS011;63131;52.298;8.056;2023-06-14T10:34:07;4.60;;;1.52;;
74624;SDS011;63131;52.298;8.056;2023-06-14T10:36:32;3.70;;;1.30;;
74624;SDS011;63131;52.298;8.056;2023-06-14T10:39:01;6.70;;;1.70;;
74624;SDS011;63131;52.298;8.056;2023-06-14T10:41:28;6.53;;;1.60;;
74624;SDS011;63131;52.298;8.056;2023-06-14T10:46:37;3.53;;;1.20;;
74624;SDS011;63131;52.298;8.056;2023-06-14T10:49:02;5.87;;;1.33;;
74624;SDS011;63131;52.298;8.056;2023-06-14T10:51:29;4.00;;;1.52;;
74624;SDS011;63131;52.298;8.056;2023-06-14T10:53:55;4.32;;;1.42;;
74624;SDS011;63131;52.298;8.056;2023-06-14T10:56:26;3.17;;;1.33;;
74624;SDS011;63131;52.298;8.056;2023-06-14T10:58:52;5.60;;;1.65;;
74624;SDS011;63131;52.298;8.056;2023-06-14T11:01:19;4.43;;;1.42;;
74624;SDS011;63131;52.298;8.056;2023-06-14T11:03:51;5.00;;;1.70;;
74624;SDS011;63131;52.298;8.056;2023-06-14T11:06:21;4.25;;;1.48;;
74624;SDS011;63131;52.298;8.056;2023-06-14T11:11:13;3.43;;;1.27;;
74624;SDS011;63131;52.298;8.056;2023-06-14T11:13:38;3.50;;;1.30;;
74624;SDS011;63131;52.298;8.056;2023-06-14T11:16:09;4.00;;;1.63;;
74624;SDS011;63131;52.298;8.056;2023-06-14T11:18:35;4.97;;;1.50;;
74624;SDS011;63131;52.298;8.056;2023-06-14T11:21:01;3.80;;;1.27;;
74624;SDS011;63131;52.298;8.056;2023-06-14T11:23:26;3.47;;;1.20;;
74624;SDS011;63131;52.298;8.056;2023-06-14T11:25:51;3.27;;;1.30;;
74624;SDS011;63131;52.298;8.056;2023-06-14T11:28:17;4.25;;;1.50;;
74624;SDS011;63131;52.298;8.056;2023-06-14T11:30:44;3.47;;;1.20;;
74624;SDS011;63131;52.298;8.056;2023-06-14T11:33:10;4.45;;;1.42;;
74624;SDS011;63131;52.298;8.056;2023-06-14T11:35:35;4.05;;;1.55;;
74624;SDS011;63131;52.298;8.056;2023-06-14T11:38:01;4.50;;;1.47;;
74624;SDS011;63131;52.298;8.056;2023-06-14T11:40:26;4.20;;;1.60;;
74624;SDS011;63131;52.298;8.056;2023-06-14T11:42:59;3.05;;;1.20;;
74624;SDS011;63131;52.298;8.056;2023-06-14T11:45:25;5.05;;;1.27;;
74624;SDS011;63131;52.298;8.056;2023-06-14T11:47:50;11.20;;;1.90;;
74624;SDS011;63131;52.298;8.056;2023-06-14T11:50:16;2.95;;;1.30;;
74624;SDS011;63131;52.298;8.056;2023-06-14T11:52:41;5.07;;;1.50;;
74624;SDS011;63131;52.298;8.056;2023-06-14T11:55:06;4.37;;;1.40;;
74624;SDS011;63131;52.298;8.056;2023-06-14T11:57:35;3.85;;;1.40;;
74624;SDS011;63131;52.298;8.056;2023-06-14T12:00:05;4.55;;;1.40;;
74624;SDS011;63131;52.298;8.056;2023-06-14T12:02:33;4.65;;;1.42;;
74624;SDS011;63131;52.298;8.056;2023-06-14T12:05:03;4.75;;;1.45;;
74624;SDS011;63131;52.298;8.056;2023-06-14T12:07:28;4.28;;;1.40;;
74624;SDS011;63131;52.298;8.056;2023-06-14T12:12:21;3.53;;;1.23;;
74624;SDS011;63131;52.298;8.056;2023-06-14T12:14:47;7.05;;;1.65;;
74624;SDS011;63131;52.298;8.056;2023-06-14T12:17:12;4.40;;;1.30;;
74624;SDS011;63131;52.298;8.056;2023-06-14T12:19:43;4.73;;;1.43;;
74624;SDS011;63131;52.298;8.056;2023-06-14T12:22:09;4.13;;;1.40;;
74624;SDS011;63131;52.298;8.056;2023-06-14T12:24:34;4.95;;;1.45;;
74624;SDS011;63131;52.298;8.056;2023-06-14T12:26:59;5.70;;;1.80;;
74624;SDS011;63131;52.298;8.056;2023-06-14T12:29:25;5.93;;;1.73;;
74624;SDS011;63131;52.298;8.056;2023-06-14T12:31:50;4.85;;;1.45;;
74624;SDS011;63131;52.298;8.056;2023-06-14T12:34:16;4.38;;;1.60;;
74624;SDS011;63131;52.298;8.056;2023-06-14T12:36:41;4.13;;;1.60;;
74624;SDS011;63131;52.298;8.056;2023-06-14T12:39:07;4.55;;;1.60;;
74624;SDS011;63131;52.298;8.056;2023-06-14T12:41:33;4.10;;;1.40;;
74624;SDS011;63131;52.298;8.056;2023-06-14T12:43:58;4.07;;;1.30;;
74624;SDS011;63131;52.298;8.056;2023-06-14T12:46:24;4.70;;;1.70;;
74624;SDS011;63131;52.298;8.056;2023-06-14T12:48:50;4.47;;;1.50;;
74624;SDS011;63131;52.298;8.056;2023-06-14T12:51:16;3.33;;;1.33;;
74624;SDS011;63131;52.298;8.056;2023-06-14T12:53:41;5.82;;;1.55;;
74624;SDS011;63131;52.298;8.056;2023-06-14T12:56:06;4.40;;;1.40;;
74624;SDS011;63131;52.298;8.056;2023-06-14T12:58:31;4.47;;;1.50;;
74624;SDS011;63131;52.298;8.056;2023-06-14T13:00:57;4.30;;;1.57;;
74624;SDS011;63131;52.298;8.056;2023-06-14T13:03:22;4.73;;;1.70;;
74624;SDS011;63131;52.298;8.056;2023-06-14T13:05:47;5.53;;;1.57;;
74624;SDS011;63131;52.298;8.056;2023-06-14T13:08:12;5.80;;;1.40;;
74624;SDS011;63131;52.298;8.056;2023-06-14T13:10:38;3.95;;;1.48;;
74624;SDS011;63131;52.298;8.056;2023-06-14T13:13:03;7.77;;;1.63;;
74624;SDS011;63131;52.298;8.056;2023-06-14T13:15:28;4.53;;;1.70;;
74624;SDS011;63131;52.298;8.056;2023-06-14T13:17:54;5.22;;;1.50;;
74624;SDS011;63131;52.298;8.056;2023-06-14T13:20:20;4.75;;;1.60;;
74624;SDS011;63131;52.298;8.056;2023-06-14T13:22:45;6.27;;;1.87;;
74624;SDS011;63131;52.298;8.056;2023-06-14T13:25:10;5.00;;;1.60;;
74624;SDS011;63131;52.298;8.056;2023-06-14T13:27:35;4.87;;;1.50;;
74624;SDS011;63131;52.298;8.056;2023-06-14T13:30:01;4.77;;;1.50;;
74624;SDS011;63131;52.298;8.056;2023-06-14T13:32:26;2.85;;;1.35;;
74624;SDS011;63131;52.298;8.056;2023-06-14T13:34:52;4.70;;;1.50;;
74624;SDS011;63131;52.298;8.056;2023-06-14T13:37:17;4.83;;;1.60;;
74624;SDS011;63131;52.298;8.056;2023-06-14T13:39:42;4.13;;;1.57;;
74624;SDS011;63131;52.298;8.056;2023-06-14T13:42:07;4.07;;;1.47;;
74624;SDS011;63131;52.298;8.056;2023-06-14T13:44:32;4.43;;;1.70;;
74624;SDS011;63131;52.298;8.056;2023-06-14T13:46:58;5.00;;;1.60;;
74624;SDS011;63131;52.298;8.056;2023-06-14T13:49:23;7.10;;;2.22;;
74624;SDS011;63131;52.298;8.056;2023-06-14T13:51:48;4.83;;;1.70;;
74624;SDS011;63131;52.298;8.056;2023-06-14T13:54:14;5.50;;;1.90;;
74624;SDS011;63131;52.298;8.056;2023-06-14T13:56:41;5.93;;;1.73;;
74624;SDS011;63131;52.298;8.056;2023-06-14T13:59:07;5.27;;;1.57;;
74624;SDS011;63131;52.298;8.056;2023-06-14T14:01:32;7.03;;;1.90;;
74624;SDS011;63131;52.298;8.056;2023-06-14T14:03:57;6.10;;;1.73;;
74624;SDS011;63131;52.298;8.056;2023-06-14T14:06:23;4.82;;;1.92;;
74624;SDS011;63131;52.298;8.056;2023-06-14T14:08:48;4.60;;;1.87;;
74624;SDS011;63131;52.298;8.056;2023-06-14T14:11:14;5.57;;;1.90;;
74624;SDS011;63131;52.298;8.056;2023-06-14T14:13:41;5.93;;;1.70;;
74624;SDS011;63131;52.298;8.056;2023-06-14T14:16:07;5.45;;;2.00;;
74624;SDS011;63131;52.298;8.056;2023-06-14T14:18:32;4.33;;;1.67;;
74624;SDS011;63131;52.298;8.056;2023-06-14T14:20:58;5.55;;;2.03;;
74624;SDS011;63131;52.298;8.056;2023-06-14T14:23:23;5.57;;;1.70;;
74624;SDS011;63131;52.298;8.056;2023-06-14T14:25:49;6.00;;;1.97;;
74624;SDS011;63131;52.298;8.056;2023-06-14T14:28:14;4.83;;;1.77;;
74624;SDS011;63131;52.298;8.056;2023-06-14T14:30:41;6.55;;;1.80;;
74624;SDS011;63131;52.298;8.056;2023-06-14T14:33:06;4.78;;;1.60;;
74624;SDS011;63131;52.298;8.056;2023-06-14T14:35:32;6.22;;;1.98;;
74624;SDS011;63131;52.298;8.056;2023-06-14T14:37:57;4.93;;;1.75;;
74624;SDS011;63131;52.298;8.056;2023-06-14T14:40:22;5.00;;;1.80;;
74624;SDS011;63131;52.298;8.056;2023-06-14T14:42:47;5.20;;;2.07;;
74624;SDS011;63131;52.298;8.056;2023-06-14T14:45:12;5.13;;;2.20;;
74624;SDS011;63131;52.298;8.056;2023-06-14T14:47:38;4.43;;;1.83;;
74624;SDS011;63131;52.298;8.056;2023-06-14T14:50:03;5.13;;;1.83;;
74624;SDS011;63131;52.298;8.056;2023-06-14T14:52:28;5.65;;;2.00;;
74624;SDS011;63131;52.298;8.056;2023-06-14T14:54:54;5.75;;;2.33;;
74624;SDS011;63131;52.298;8.056;2023-06-14T14:57:19;6.10;;;2.30;;
74624;SDS011;63131;52.298;8.056;2023-06-14T14:59:44;6.30;;;2.08;;
74624;SDS011;63131;52.298;8.056;2023-06-14T15:02:10;4.83;;;2.07;;
74624;SDS011;63131;52.298;8.056;2023-06-14T15:04:35;5.63;;;2.13;;
74624;SDS011;63131;52.298;8.056;2023-06-14T15:07:00;5.75;;;2.05;;
74624;SDS011;63131;52.298;8.056;2023-06-14T15:09:26;5.27;;;1.90;;
74624;SDS011;63131;52.298;8.056;2023-06-14T15:11:51;5.80;;;2.17;;
74624;SDS011;63131;52.298;8.056;2023-06-14T15:14:16;5.20;;;2.00;;